Flight Track Log - Related Links

Times and Time Zones

All times are in EDT time to prevent confusion due to time zone crossing. See the ASH2620 flight status page for this flight to view local times or setup timezone preferences in your user account.

Time Position Orientation Groundspeed Altitude Reporting Facility
EDT Latitude Longitude Course Direction KTS MPH feet Rate Location/Type
Wed 07:47:04 PM 32.9772 -80.0128 North 231 266 3,800  Level Jacksonville Center
Wed 07:48:04 PM 33.0456 -79.9933 13° North 259 298 7,100 3,350 Climbing Jacksonville Center
Wed 07:49:00 PM 33.1945 -79.9422 19° North  Level FlightAware Approximate
Wed 07:49:04 PM 33.1244 -79.9708 13° North 270 311 10,500  Level Jacksonville Center
Wed 07:50:00 PM 33.2732 -79.9220 North  Level FlightAware Approximate
Wed 07:50:04 PM 33.2175 -79.9431 14° North 304 350 12,700  Level Jacksonville Center
Wed 07:51:00 PM 33.3494 -79.8920 23° Northeast  Level FlightAware Approximate
Wed 07:51:04 PM 33.3297 -79.9144 12° North 353 406 15,900  Level Jacksonville Center
Wed 07:52:00 PM 33.4278 -79.8711 North  Level FlightAware Approximate
Wed 07:52:04 PM 33.4353 -79.8833 14° North 376 433 18,300  Level Jacksonville Center
Wed 07:53:04 PM 33.5453 -79.8522 13° North 387 445 19,000 350 Climbing Jacksonville Center
Wed 07:54:04 PM 33.6519 -79.8636 355° North 381 438 19,000  Level Jacksonville Center
Wed 07:55:04 PM 33.7553 -79.9100 340° North 387 445 19,000  Level Jacksonville Center
Wed 07:56:04 PM 33.8628 -79.9589 339° North 399 459 19,000  Level Jacksonville Center
Wed 07:57:04 PM 33.9703 -80.0053 340° North 404 465 19,000 -350 Level Jacksonville Center
Wed 07:58:04 PM 34.0736 -80.0544 338° Northwest 404 465 18,300 -1,000 Descending Jacksonville Center
Wed 07:59:04 PM 34.1769 -80.0989 340° North 404 465 17,000 -1,400 Descending Jacksonville Center
Wed 08:00:04 PM 34.2758 -80.1461 338° Northwest 390 449 15,500 -1,450 Descending Jacksonville Center
Wed 08:01:04 PM 34.3728 -80.1883 340° North 378 435 14,100 -1,400 Descending Jacksonville Center
Wed 08:02:04 PM 34.4719 -80.2331 340° North 373 429 12,700 -979 Descending Jacksonville Center
Wed 08:04:14 PM 34.6669 -80.3264 339° North 335 386 11,000 -551 Descending Atlanta Center
Wed 08:05:09 PM 34.7311 -80.3792 326° Northwest 294 338 11,000 -491 Level Atlanta Center
Wed 08:06:04 PM 34.7789 -80.4403 314° West 254 292 10,100 -1,138 Descending Atlanta Center
Wed 08:07:05 PM 34.7997 -80.5125 289° West 243 280 8,800 -1,377 Descending Atlanta Center
Wed 08:08:06 PM 34.7936 -80.5989 265° West 250 288 7,300 -1,328 Descending Atlanta Center
Wed 08:09:07 PM 34.7833 -80.6803 261° West 247 284 6,100 -614 Descending Atlanta Center
Wed 08:10:13 PM 34.7736 -80.7767 263° West 246 283 6,000 -47 Descending Atlanta Center
Wed 08:11:15 PM 34.7653 -80.8556 263° West 237 273 6,000  Level Atlanta Center
Wed 08:12:15 PM 34.7753 -80.9233 280° West 217 250 6,000 -149 Level Atlanta Center
Wed 08:13:16 PM 34.8339 -80.9364 350° North 209 241 5,700 -443 Descending Atlanta Center
Wed 08:14:17 PM 34.8906 -80.9417 356° North 196 226 5,100 -344 Descending Atlanta Center
Wed 08:15:18 PM 34.9406 -80.9450 357° North 167 192 5,000 -47 Descending Atlanta Center
Wed 08:16:25 PM 34.9928 -80.9481 357° North 176 203 5,000 -516 Level Atlanta Center
Wed 08:17:26 PM 35.0411 -80.9539 354° North 177 204 3,900 -1,034 Descending Atlanta Center
Wed 08:18:21 PM 35.0850 -80.9600 353° North 173 199 3,000 -934 Descending Atlanta Center
Wed 08:19:28 PM 35.1372 -80.9631 357° North 158 182 2,000 -896 Descending Atlanta Center

Login

Don't have an account? Register now (free) for customized features, flight alerts, and more!